Time;durP1;ratioP1;P1;durP2;ratioP2;P2;SDS_P1;SDS_P2;PMS_P1;PMS_P2;Temp;Humidity;BMP_temperature;BMP_pressure;BME280_temperature;BME280_humidity;BME280_pressure;Samples;Min_cycle;Max_cycle;Signal;HPM_P1;HPM_P2
2023/04/13 00:00:23;;;;;;;0.83;0.30;;;8.50;99.90;;;;;;5053463;28;20021;-75
2023/04/13 00:02:52;;;;;;;6.03;0.97;;;8.50;99.90;;;;;;5042695;28;20041;-75
2023/04/13 00:05:19;;;;;;;4.03;0.87;;;8.50;99.90;;;;;;5040528;28;20029;-75
2023/04/13 00:07:44;;;;;;;2.90;0.60;;;8.40;99.90;;;;;;5047674;28;20025;-76
2023/04/13 00:10:10;;;;;;;2.93;0.60;;;8.40;99.90;;;;;;5041418;28;20108;-75
2023/04/13 00:12:37;;;;;;;2.67;0.50;;;8.40;99.90;;;;;;5045468;28;20017;-75
2023/04/13 00:15:04;;;;;;;2.77;0.80;;;8.40;99.90;;;;;;5041590;28;20025;-75
2023/04/13 00:17:30;;;;;;;4.73;0.60;;;8.40;99.90;;;;;;5040595;28;20478;-75
2023/04/13 00:19:58;;;;;;;2.53;0.50;;;8.40;99.90;;;;;;5040762;28;20032;-75
2023/04/13 00:22:24;;;;;;;0.70;0.37;;;8.40;99.90;;;;;;5033740;28;20028;-74
2023/04/13 00:24:54;;;;;;;4.70;0.83;;;8.40;99.90;;;;;;5041011;28;20029;-74
2023/04/13 00:27:20;;;;;;;3.30;0.40;;;8.30;99.90;;;;;;5047062;28;20028;-75
2023/04/13 00:29:46;;;;;;;2.20;0.67;;;8.30;99.90;;;;;;5041977;28;20049;-74
2023/04/13 00:32:11;;;;;;;1.00;0.60;;;8.30;99.90;;;;;;5053292;28;20056;-75
2023/04/13 00:34:37;;;;;;;0.97;0.40;;;8.30;99.90;;;;;;5035906;28;20036;-74
2023/04/13 00:37:05;;;;;;;1.73;1.23;;;8.30;99.90;;;;;;5040730;28;20385;-74
2023/04/13 00:39:31;;;;;;;1.93;0.67;;;8.30;99.90;;;;;;5039575;28;20071;-75
2023/04/13 00:42:00;;;;;;;2.23;0.70;;;8.30;99.90;;;;;;5052062;28;20028;-75
2023/04/13 00:44:27;;;;;;;2.90;0.40;;;8.30;99.90;;;;;;5039474;28;20470;-74
2023/04/13 00:46:53;;;;;;;0.97;0.50;;;8.30;99.90;;;;;;5053060;28;20025;-75
2023/04/13 00:49:21;;;;;;;3.03;0.63;;;8.30;99.90;;;;;;5050754;28;20486;-75
2023/04/13 00:51:46;;;;;;;3.87;0.90;;;8.30;99.90;;;;;;5051639;28;20021;-74
2023/04/13 00:54:13;;;;;;;2.13;0.43;;;8.30;99.90;;;;;;5045233;28;20691;-75
2023/04/13 00:56:43;;;;;;;2.83;0.70;;;8.30;99.90;;;;;;5033438;28;20025;-74
2023/04/13 00:59:10;;;;;;;3.53;0.60;;;8.30;99.90;;;;;;5033202;28;20158;-74
2023/04/13 01:01:45;;;;;;;1.63;0.50;;;8.30;99.90;;;;;;5033282;28;20524;-75
2023/04/13 01:04:17;;;;;;;2.77;0.67;;;8.30;99.90;;;;;;5032724;28;20128;-75
2023/04/13 01:06:52;;;;;;;3.30;0.80;;;8.30;99.90;;;;;;5033623;28;20096;-75
2023/04/13 01:09:25;;;;;;;3.57;1.00;;;8.30;99.90;;;;;;5033334;28;20033;-75
2023/04/13 01:12:03;;;;;;;4.37;0.77;;;8.20;99.90;;;;;;5032616;28;20021;-75
2023/04/13 01:14:37;;;;;;;3.17;0.60;;;8.20;99.90;;;;;;5032677;28;20108;-75
2023/04/13 01:17:15;;;;;;;2.27;0.70;;;8.20;99.90;;;;;;5034640;28;20025;-75
2023/04/13 01:20:00;;;;;;;3.47;0.83;;;8.20;99.90;;;;;;5033331;28;20108;-75
2023/04/13 01:22:31;;;;;;;5.47;0.90;;;8.20;99.90;;;;;;5034139;28;20032;-75
2023/04/13 01:25:29;;;;;;;2.17;0.60;;;8.20;99.90;;;;;;5037287;28;20112;-74
2023/04/13 01:28:01;;;;;;;3.23;0.60;;;8.20;99.90;;;;;;5027029;28;20104;-75
2023/04/13 01:30:27;;;;;;;5.67;1.00;;;8.20;99.90;;;;;;5039163;28;20556;-74
2023/04/13 01:32:54;;;;;;;3.53;0.77;;;8.20;99.90;;;;;;5052000;28;20020;-75
2023/04/13 01:35:21;;;;;;;2.70;0.70;;;8.20;99.90;;;;;;5032976;28;20067;-75
2023/04/13 01:37:49;;;;;;;4.50;0.90;;;8.30;99.90;;;;;;5064560;28;20021;-75
2023/04/13 01:40:14;;;;;;;2.17;0.97;;;8.30;99.90;;;;;;5030906;28;20017;-75
2023/04/13 01:42:43;;;;;;;1.30;0.70;;;8.20;99.90;;;;;;5031613;28;20032;-74
2023/04/13 01:45:14;;;;;;;2.73;0.77;;;8.20;99.90;;;;;;5032324;28;20034;-76
2023/04/13 01:47:49;;;;;;;5.50;1.07;;;8.20;99.90;;;;;;5031115;28;20056;-75
2023/04/13 01:50:24;;;;;;;2.30;0.80;;;8.20;99.90;;;;;;5051901;28;20075;-75
2023/04/13 01:52:53;;;;;;;4.90;1.10;;;8.20;99.90;;;;;;5044526;28;20013;-75
2023/04/13 01:55:22;;;;;;;2.53;0.50;;;8.20;99.90;;;;;;5051704;28;20103;-75
2023/04/13 01:57:49;;;;;;;2.20;0.90;;;8.20;99.90;;;;;;5051787;28;20024;-75
2023/04/13 02:00:17;;;;;;;2.30;0.60;;;8.20;99.90;;;;;;5050900;28;20059;-74
2023/04/13 02:02:43;;;;;;;2.87;0.70;;;8.30;99.90;;;;;;5037891;28;20048;-74
2023/04/13 02:05:09;;;;;;;3.40;0.90;;;8.30;99.90;;;;;;5051615;28;20030;-74
2023/04/13 02:07:38;;;;;;;4.40;0.67;;;8.20;99.90;;;;;;5050602;28;20104;-75
2023/04/13 02:10:05;;;;;;;4.07;1.10;;;8.20;99.90;;;;;;5049871;28;20079;-75
2023/04/13 02:12:31;;;;;;;3.97;1.00;;;8.30;99.90;;;;;;5050772;28;20048;-75
2023/04/13 02:14:59;;;;;;;4.30;1.75;;;8.30;99.90;;;;;;5050702;28;20423;-74
2023/04/13 02:17:28;;;;;;;1.47;0.60;;;8.30;99.90;;;;;;5049498;28;20359;-74
2023/04/13 02:19:57;;;;;;;3.70;0.90;;;8.30;99.90;;;;;;5038690;28;20060;-75
2023/04/13 02:22:23;;;;;;;2.93;0.60;;;8.30;99.90;;;;;;5033337;28;20037;-74
2023/04/13 02:24:49;;;;;;;3.00;0.80;;;8.30;99.90;;;;;;5050746;28;20025;-74
2023/04/13 02:27:16;;;;;;;3.40;0.90;;;8.30;99.90;;;;;;5049552;28;20022;-75
2023/04/13 02:29:42;;;;;;;4.03;0.80;;;8.30;99.90;;;;;;5050152;28;20117;-74
2023/04/13 02:32:07;;;;;;;3.07;0.87;;;8.30;99.90;;;;;;5044627;28;20021;-75
2023/04/13 02:34:33;;;;;;;2.40;0.83;;;8.30;99.90;;;;;;5031164;28;20508;-74
2023/04/13 02:37:01;;;;;;;3.90;0.60;;;8.30;99.90;;;;;;5031623;28;20025;-74
2023/04/13 02:39:27;;;;;;;1.73;0.60;;;8.30;99.90;;;;;;5031117;28;20064;-74
2023/04/13 02:41:53;;;;;;;3.83;0.53;;;8.30;99.90;;;;;;5035965;28;20461;-75
2023/04/13 02:44:18;;;;;;;4.93;0.70;;;8.30;99.90;;;;;;5045094;28;20505;-75
2023/04/13 02:46:44;;;;;;;2.83;1.00;;;8.30;99.90;;;;;;5048580;28;20020;-75
2023/04/13 02:49:09;;;;;;;4.30;0.80;;;8.40;99.90;;;;;;5045082;28;20021;-74
2023/04/13 02:51:35;;;;;;;2.73;0.70;;;8.30;99.90;;;;;;5047956;28;20021;-75
2023/04/13 02:54:01;;;;;;;3.23;0.97;;;8.30;99.90;;;;;;5045481;28;20025;-75
2023/04/13 02:56:29;;;;;;;3.87;1.17;;;8.30;99.90;;;;;;5048163;28;20017;-75
2023/04/13 02:58:55;;;;;;;4.60;0.90;;;8.30;99.90;;;;;;5043936;28;20021;-74
2023/04/13 03:01:23;;;;;;;4.13;0.90;;;8.30;99.90;;;;;;5048013;28;20039;-75
2023/04/13 03:03:49;;;;;;;2.60;1.17;;;8.30;99.90;;;;;;5036583;28;20048;-74
2023/04/13 03:06:15;;;;;;;3.33;0.87;;;8.20;99.90;;;;;;5047208;28;20021;-75
2023/04/13 03:08:40;;;;;;;4.10;0.63;;;8.20;99.90;;;;;;5044086;28;20021;-74
2023/04/13 03:11:08;;;;;;;3.07;0.83;;;8.10;99.90;;;;;;5046261;28;20029;-75
2023/04/13 03:13:34;;;;;;;3.50;0.87;;;8.00;99.90;;;;;;5043331;28;20022;-75
2023/04/13 03:16:00;;;;;;;1.83;1.07;;;8.00;99.90;;;;;;5047151;28;20100;-74
2023/04/13 03:18:26;;;;;;;4.77;1.03;;;7.90;99.90;;;;;;5043294;28;20048;-74
2023/04/13 03:20:52;;;;;;;3.37;0.90;;;7.80;99.90;;;;;;5046870;28;20412;-75
2023/04/13 03:23:18;;;;;;;2.63;0.80;;;7.80;99.90;;;;;;5042582;28;20049;-75
2023/04/13 03:25:44;;;;;;;4.43;1.17;;;7.70;99.90;;;;;;5046667;28;20101;-75
2023/04/13 03:28:10;;;;;;;2.30;1.00;;;7.70;99.90;;;;;;5041909;28;20089;-76
2023/04/13 03:30:36;;;;;;;4.27;2.03;;;7.60;99.90;;;;;;5046537;28;20071;-74
2023/04/13 03:33:01;;;;;;;3.73;1.03;;;7.50;99.90;;;;;;5050106;28;20024;-75
2023/04/13 03:35:27;;;;;;;3.70;1.23;;;7.50;99.90;;;;;;5041611;28;20415;-75
2023/04/13 03:37:53;;;;;;;4.73;1.37;;;7.50;99.90;;;;;;5034795;28;20041;-75
2023/04/13 03:40:18;;;;;;;2.70;1.40;;;7.40;99.90;;;;;;5043153;28;20100;-75
2023/04/13 03:42:44;;;;;;;5.73;0.97;;;7.40;99.90;;;;;;5037818;28;20017;-75
2023/04/13 03:45:10;;;;;;;3.47;1.63;;;7.40;99.90;;;;;;5044142;28;20040;-75
2023/04/13 03:47:37;;;;;;;4.53;1.07;;;7.40;99.90;;;;;;5048103;28;20374;-75
2023/04/13 03:50:03;;;;;;;3.70;1.13;;;7.30;99.90;;;;;;5049872;28;20174;-75
2023/04/13 03:52:29;;;;;;;4.67;1.43;;;7.30;99.90;;;;;;5048935;28;20478;-75
2023/04/13 03:54:55;;;;;;;4.93;1.47;;;7.30;99.90;;;;;;5049675;28;20107;-75
2023/04/13 03:57:24;;;;;;;2.87;1.20;;;7.30;99.90;;;;;;5048255;28;20028;-75
2023/04/13 03:59:49;;;;;;;4.10;1.30;;;7.20;99.90;;;;;;5049759;28;20482;-75
2023/04/13 04:02:15;;;;;;;6.77;1.73;;;7.20;99.90;;;;;;5048679;28;20024;-74
2023/04/13 04:04:41;;;;;;;4.07;1.30;;;7.20;99.90;;;;;;5049931;28;20019;-75
2023/04/13 04:07:06;;;;;;;4.70;1.33;;;7.20;99.90;;;;;;5035170;28;20091;-75
2023/04/13 04:09:32;;;;;;;3.07;1.23;;;7.20;99.90;;;;;;5041659;28;20037;-75
2023/04/13 04:11:57;;;;;;;4.93;1.40;;;7.10;99.90;;;;;;5020081;28;20036;-75
2023/04/13 04:14:23;;;;;;;3.67;1.20;;;7.10;99.90;;;;;;5029376;28;20025;-75
2023/04/13 04:16:48;;;;;;;3.90;1.20;;;7.10;99.90;;;;;;5033250;28;20028;-75
2023/04/13 04:19:14;;;;;;;3.67;1.20;;;7.10;99.90;;;;;;5049394;28;20029;-75
2023/04/13 04:21:45;;;;;;;2.97;1.10;;;7.10;99.90;;;;;;5049229;28;20017;-75
2023/04/13 04:24:19;;;;;;;5.00;1.17;;;7.10;99.90;;;;;;5052875;28;20424;-75
2023/04/13 04:26:49;;;;;;;10.05;1.25;;;7.10;99.90;;;;;;5052250;28;20021;-75
2023/04/13 04:29:16;;;;;;;8.20;2.17;;;7.10;99.90;;;;;;5051350;28;20412;-75
2023/04/13 04:31:43;;;;;;;3.43;1.27;;;7.20;99.90;;;;;;5049087;28;20021;-75
2023/04/13 04:34:09;;;;;;;2.73;1.00;;;7.20;99.90;;;;;;5033948;28;20021;-75
2023/04/13 04:36:40;;;;;;;6.63;1.53;;;7.30;99.90;;;;;;5033372;28;20028;-76
2023/04/13 04:39:07;;;;;;;3.67;1.60;;;7.30;99.90;;;;;;5033902;28;20048;-75
2023/04/13 04:41:36;;;;;;;6.50;1.80;;;7.20;99.90;;;;;;5033202;28;20025;-76
2023/04/13 04:44:03;;;;;;;3.33;1.40;;;7.20;99.90;;;;;;5034020;28;20022;-76
2023/04/13 04:46:29;;;;;;;2.57;1.53;;;7.20;99.90;;;;;;5033182;28;20029;-75
2023/04/13 04:48:54;;;;;;;3.87;1.90;;;7.20;99.90;;;;;;5033804;28;20037;-75
2023/04/13 04:51:23;;;;;;;5.40;2.53;;;7.20;99.90;;;;;;5033384;28;20025;-76
2023/04/13 04:53:50;;;;;;;5.33;2.20;;;7.10;99.90;;;;;;5032840;28;20029;-76
2023/04/13 04:56:16;;;;;;;5.17;2.60;;;7.20;99.90;;;;;;5033195;28;20021;-76
2023/04/13 04:58:41;;;;;;;6.73;3.07;;;7.20;99.90;;;;;;5041181;28;20031;-76
2023/04/13 05:01:07;;;;;;;9.33;3.93;;;7.30;99.90;;;;;;5046067;28;20065;-76
2023/04/13 05:03:33;;;;;;;6.60;4.20;;;7.30;99.90;;;;;;5031438;28;20046;-76
2023/04/13 05:05:58;;;;;;;9.37;3.47;;;7.40;99.90;;;;;;5047917;28;20021;-76
2023/04/13 05:08:24;;;;;;;6.80;3.00;;;7.50;99.90;;;;;;5032431;28;20093;-75
2023/04/13 05:10:50;;;;;;;11.17;4.33;;;7.50;99.90;;;;;;5050910;28;20040;-75
2023/04/13 05:13:16;;;;;;;7.10;3.57;;;7.60;99.90;;;;;;5052449;28;20055;-75
2023/04/13 05:15:41;;;;;;;8.87;4.93;;;7.60;99.90;;;;;;5050712;28;20017;-75
2023/04/13 05:18:07;;;;;;;10.90;5.63;;;7.60;99.90;;;;;;5052281;28;20021;-76
2023/04/13 05:20:33;;;;;;;8.00;5.57;;;7.60;99.90;;;;;;5051717;28;20021;-76
2023/04/13 05:22:59;;;;;;;10.83;6.30;;;7.70;99.90;;;;;;5051870;28;20497;-76
2023/04/13 05:25:25;;;;;;;11.77;6.57;;;7.70;99.90;;;;;;5050192;28;20025;-76
2023/04/13 05:27:51;;;;;;;9.63;6.23;;;7.70;99.90;;;;;;5041733;28;20083;-76
2023/04/13 05:30:17;;;;;;;13.20;6.93;;;7.70;99.90;;;;;;5050059;28;20016;-76
2023/04/13 05:32:43;;;;;;;11.73;6.87;;;7.60;99.90;;;;;;5052458;28;20017;-76
2023/04/13 05:35:09;;;;;;;12.20;6.20;;;7.60;99.90;;;;;;5051223;28;20068;-76
2023/04/13 05:37:35;;;;;;;13.90;7.20;;;7.60;99.90;;;;;;5040218;28;20483;-76
2023/04/13 05:40:01;;;;;;;12.27;6.90;;;7.70;99.90;;;;;;5031194;28;20033;-76
2023/04/13 05:42:27;;;;;;;15.13;6.93;;;7.70;99.90;;;;;;5032666;28;20026;-76
2023/04/13 05:44:52;;;;;;;14.90;7.23;;;7.70;99.90;;;;;;5031318;28;20032;-76
2023/04/13 05:47:21;;;;;;;10.67;6.10;;;7.70;99.90;;;;;;5032219;28;20030;-76
2023/04/13 05:49:46;;;;;;;15.43;5.97;;;7.70;99.90;;;;;;5037399;28;20048;-76
2023/04/13 05:52:12;;;;;;;13.57;7.27;;;7.70;99.90;;;;;;5044964;28;20379;-76
2023/04/13 05:54:38;;;;;;;9.80;5.33;;;7.80;99.90;;;;;;5045476;28;20432;-76
2023/04/13 05:57:04;;;;;;;13.50;5.87;;;7.90;99.90;;;;;;5035024;28;20026;-76
2023/04/13 05:59:29;;;;;;;11.80;5.43;;;8.00;99.90;;;;;;5032426;28;20025;-76
2023/04/13 06:01:56;;;;;;;10.43;5.50;;;8.10;99.90;;;;;;5030679;28;20025;-76
2023/04/13 06:04:21;;;;;;;12.83;5.40;;;8.20;99.90;;;;;;5051206;28;20047;-75
2023/04/13 06:06:47;;;;;;;9.83;5.17;;;8.30;99.90;;;;;;5050877;28;20021;-74
2023/04/13 06:09:13;;;;;;;10.60;5.70;;;8.40;99.90;;;;;;5038369;28;20025;-73
2023/04/13 06:11:39;;;;;;;13.30;5.87;;;8.50;99.90;;;;;;5037998;28;20136;-73
2023/04/13 06:14:05;;;;;;;10.33;5.37;;;8.50;99.90;;;;;;5051672;28;20095;-73
2023/04/13 06:16:30;;;;;;;14.07;6.93;;;8.50;99.90;;;;;;5036493;28;20045;-73
2023/04/13 06:18:57;;;;;;;8.00;4.60;;;8.50;99.90;;;;;;5032000;28;20034;-73
2023/04/13 06:21:24;;;;;;;13.87;6.50;;;8.50;99.90;;;;;;5031154;28;20457;-73
2023/04/13 06:23:50;;;;;;;11.23;6.60;;;8.50;99.90;;;;;;5044338;28;20030;-73
2023/04/13 06:26:16;;;;;;;12.60;6.60;;;8.50;99.90;;;;;;5035861;28;20502;-73
2023/04/13 06:28:42;;;;;;;11.43;6.47;;;8.50;99.90;;;;;;5051191;28;20067;-73
2023/04/13 06:31:07;;;;;;;11.33;5.57;;;8.50;99.90;;;;;;5050778;28;20425;-73
2023/04/13 06:33:33;;;;;;;8.90;5.57;;;8.60;99.90;;;;;;5049398;28;20029;-73
2023/04/13 06:35:58;;;;;;;7.90;5.37;;;8.60;99.90;;;;;;5036923;28;20029;-73
2023/04/13 06:38:24;;;;;;;8.70;5.20;;;8.60;99.90;;;;;;5048457;28;20036;-72
2023/04/13 06:40:50;;;;;;;7.77;4.20;;;8.50;99.90;;;;;;5050656;28;20098;-73
2023/04/13 06:43:15;;;;;;;8.47;4.90;;;8.40;99.90;;;;;;5049920;28;20013;-73
2023/04/13 06:45:41;;;;;;;10.93;6.13;;;8.40;99.90;;;;;;5049613;28;20051;-73
2023/04/13 06:48:07;;;;;;;6.97;4.07;;;8.40;99.90;;;;;;5050231;28;20536;-73
2023/04/13 06:50:32;;;;;;;9.27;4.03;;;8.40;99.90;;;;;;5050295;28;20017;-73
2023/04/13 06:52:58;;;;;;;8.17;4.43;;;8.40;99.90;;;;;;5050569;28;20466;-73
2023/04/13 06:55:23;;;;;;;11.60;6.10;;;8.40;99.90;;;;;;5047861;28;20025;-73
2023/04/13 06:57:49;;;;;;;8.53;5.53;;;8.40;99.90;;;;;;5048697;28;20027;-73
2023/04/13 07:00:15;;;;;;;8.37;5.30;;;8.40;99.90;;;;;;5045743;28;20029;-73
2023/04/13 07:02:41;;;;;;;8.83;4.57;;;8.40;99.90;;;;;;5031247;28;20040;-73
2023/04/13 07:05:08;;;;;;;6.97;4.23;;;8.40;99.90;;;;;;5031663;28;20390;-73
2023/04/13 07:07:33;;;;;;;4.93;3.03;;;8.40;99.90;;;;;;5032731;28;20427;-73
2023/04/13 07:09:59;;;;;;;5.93;3.53;;;8.30;99.90;;;;;;5040555;28;20063;-73
2023/04/13 07:12:25;;;;;;;8.07;3.17;;;8.20;99.90;;;;;;5042831;28;20433;-73
2023/04/13 07:14:50;;;;;;;6.53;3.67;;;8.30;99.90;;;;;;5041587;28;20029;-73
2023/04/13 07:17:17;;;;;;;8.03;3.30;;;8.40;99.90;;;;;;5035037;28;20053;-73
2023/04/13 07:19:46;;;;;;;8.73;3.57;;;8.40;99.90;;;;;;5034011;28;20017;-72
2023/04/13 07:22:12;;;;;;;7.10;3.73;;;8.50;99.90;;;;;;5036908;28;20018;-72
2023/04/13 07:24:38;;;;;;;6.37;4.00;;;8.50;99.90;;;;;;5037160;28;20028;-73
2023/04/13 07:27:03;;;;;;;6.17;3.40;;;8.40;99.90;;;;;;5041371;28;20345;-73
2023/04/13 07:29:29;;;;;;;4.20;1.90;;;8.40;99.90;;;;;;5046678;28;20480;-74
2023/04/13 07:32:03;;;;;;;8.93;3.23;;;8.30;99.90;;;;;;5048752;28;20021;-73
2023/04/13 07:34:29;;;;;;;6.45;3.10;;;8.40;99.90;;;;;;5049465;28;20071;-73
2023/04/13 07:36:55;;;;;;;7.07;3.90;;;8.40;99.90;;;;;;5049143;28;20517;-73
2023/04/13 07:39:21;;;;;;;9.87;3.40;;;8.50;99.90;;;;;;5040833;28;20021;-72
2023/04/13 07:41:47;;;;;;;9.67;3.40;;;8.60;99.90;;;;;;5042022;28;20025;-73
2023/04/13 07:44:16;;;;;;;5.20;3.40;;;8.80;99.90;;;;;;5037326;28;20030;-73
2023/04/13 07:46:42;;;;;;;6.10;3.53;;;9.00;99.90;;;;;;5048456;28;20492;-72
2023/04/13 07:49:07;;;;;;;11.43;4.13;;;9.00;99.90;;;;;;5036509;28;20108;-73
2023/04/13 07:51:33;;;;;;;6.77;3.47;;;9.10;99.90;;;;;;5030284;28;20048;-72
2023/04/13 07:54:00;;;;;;;8.23;3.87;;;9.10;99.90;;;;;;5030232;28;20080;-73
2023/04/13 07:56:26;;;;;;;7.80;3.17;;;9.20;99.90;;;;;;5029044;28;20084;-72
2023/04/13 07:58:51;;;;;;;10.90;5.77;;;9.30;99.90;;;;;;5035983;28;20022;-72
2023/04/13 08:01:17;;;;;;;7.63;3.30;;;9.40;99.90;;;;;;5040984;28;20112;-72
2023/04/13 08:03:43;;;;;;;10.25;4.30;;;9.60;99.90;;;;;;5047225;28;20065;-72
2023/04/13 08:06:10;;;;;;;11.60;3.60;;;9.60;99.90;;;;;;5050090;28;20071;-72
2023/04/13 08:08:35;;;;;;;11.53;4.27;;;9.70;99.90;;;;;;5046649;28;20027;-73
2023/04/13 08:11:01;;;;;;;8.63;4.00;;;9.70;99.90;;;;;;5049882;28;20017;-72
2023/04/13 08:13:28;;;;;;;10.52;3.72;;;9.90;99.90;;;;;;5045753;28;20041;-72
2023/04/13 08:15:57;;;;;;;12.32;3.67;;;9.90;99.90;;;;;;5034737;28;20026;-72
2023/04/13 08:18:23;;;;;;;8.55;3.20;;;10.00;99.90;;;;;;5040871;28;20442;-73
2023/04/13 08:20:49;;;;;;;14.63;3.83;;;10.00;99.90;;;;;;5039922;28;20051;-72
2023/04/13 08:23:14;;;;;;;10.70;3.20;;;10.00;99.90;;;;;;5039755;28;20026;-71
2023/04/13 08:25:40;;;;;;;11.48;3.72;;;10.10;99.90;;;;;;5040280;28;20982;-71
2023/04/13 08:28:06;;;;;;;11.27;3.45;;;10.20;99.90;;;;;;5039683;28;20026;-72
2023/04/13 08:30:32;;;;;;;13.50;3.80;;;10.30;99.90;;;;;;5045890;28;20013;-72
2023/04/13 08:32:58;;;;;;;9.25;3.40;;;10.30;99.90;;;;;;5039006;28;20036;-72
2023/04/13 08:35:23;;;;;;;11.52;3.50;;;10.40;99.90;;;;;;5034505;28;20482;-72
2023/04/13 08:37:49;;;;;;;12.43;3.05;;;10.30;99.90;;;;;;5044228;28;20035;-73
2023/04/13 08:40:17;;;;;;;7.35;2.97;;;10.30;99.90;;;;;;5052311;28;20474;-73
2023/04/13 08:42:43;;;;;;;9.00;2.97;;;10.30;99.90;;;;;;5051915;28;20024;-73
2023/04/13 08:45:09;;;;;;;13.52;3.03;;;10.30;99.90;;;;;;5036797;28;20037;-74
2023/04/13 08:47:35;;;;;;;12.80;3.00;;;10.30;99.90;;;;;;5033501;28;20052;-74
2023/04/13 08:50:01;;;;;;;8.30;2.70;;;10.30;99.90;;;;;;5036508;28;20053;-74
2023/04/13 08:52:28;;;;;;;13.57;3.08;;;10.40;99.90;;;;;;5032983;28;20029;-74
2023/04/13 08:54:56;;;;;;;10.35;2.67;;;10.40;99.90;;;;;;5046620;28;20033;-73
2023/04/13 08:57:22;;;;;;;11.77;2.70;;;10.50;99.90;;;;;;5039172;28;20087;-74
2023/04/13 08:59:51;;;;;;;12.00;3.83;;;10.50;99.90;;;;;;5051254;28;20467;-73
2023/04/13 09:02:22;;;;;;;12.43;2.85;;;10.60;99.90;;;;;;5047539;28;20095;-73
2023/04/13 09:04:51;;;;;;;11.18;1.90;;;10.70;99.90;;;;;;5039221;28;20056;-73
2023/04/13 09:07:25;;;;;;;9.38;2.88;;;10.70;99.90;;;;;;5041471;28;20049;-73
2023/04/13 09:09:56;;;;;;;8.98;2.70;;;10.80;99.90;;;;;;5034042;28;20025;-73
2023/04/13 09:12:25;;;;;;;16.30;2.00;;;10.80;99.90;;;;;;5038192;28;20283;-70
2023/04/13 09:14:51;;;;;;;9.65;2.28;;;10.80;99.90;;;;;;5026342;28;20105;-70
2023/04/13 09:17:31;;;;;;;9.63;1.70;;;10.80;99.90;;;;;;5030928;28;20120;-70
2023/04/13 09:20:10;;;;;;;11.77;1.42;;;10.80;99.90;;;;;;5044686;28;20076;-70
2023/04/13 09:22:35;;;;;;;12.55;2.33;;;10.90;99.90;;;;;;5031717;28;20029;-71
2023/04/13 09:25:03;;;;;;;16.08;2.38;;;10.90;99.90;;;;;;5044439;28;20037;-70
2023/04/13 09:27:29;;;;;;;11.55;1.90;;;10.90;99.90;;;;;;5032177;28;20037;-70
2023/04/13 09:29:55;;;;;;;9.18;2.50;;;10.90;99.90;;;;;;5051164;28;20029;-71
2023/04/13 09:32:25;;;;;;;10.73;1.95;;;10.80;99.90;;;;;;5043505;28;20032;-70
2023/04/13 09:35:05;;;;;;;7.70;1.88;;;10.80;99.90;;;;;;5031778;28;20025;-71
2023/04/13 09:37:31;;;;;;;11.50;2.05;;;10.80;99.90;;;;;;5031931;28;20825;-70
2023/04/13 09:40:12;;;;;;;12.25;1.60;;;10.90;99.90;;;;;;5032861;28;20479;-71
2023/04/13 09:42:39;;;;;;;16.45;2.53;;;11.10;99.90;;;;;;5033204;28;20075;-71
2023/04/13 09:45:05;;;;;;;15.45;2.42;;;11.30;99.90;;;;;;5030400;28;20108;-70
2023/04/13 09:47:39;;;;;;;9.95;2.05;;;11.50;99.90;;;;;;5030321;28;20113;-71
2023/04/13 09:50:20;;;;;;;6.90;2.05;;;11.70;99.90;;;;;;5047367;28;20013;-70
2023/04/13 09:52:45;;;;;;;11.35;1.95;;;11.90;99.90;;;;;;5033420;28;20028;-73
2023/04/13 09:55:18;;;;;;;6.57;1.48;;;12.00;99.90;;;;;;5045776;28;20203;-73
2023/04/13 09:57:43;;;;;;;7.47;2.05;;;12.00;99.90;;;;;;5041010;28;20085;-73
2023/04/13 10:00:19;;;;;;;11.63;1.92;;;12.10;99.90;;;;;;5038954;28;20033;-73
2023/04/13 10:02:46;;;;;;;14.07;2.08;;;12.10;99.90;;;;;;5030620;28;20065;-73
2023/04/13 10:05:12;;;;;;;9.40;2.00;;;12.00;99.90;;;;;;5032949;28;20083;-73
2023/04/13 10:07:40;;;;;;;9.40;1.95;;;12.00;99.90;;;;;;5034144;28;20406;-73
2023/04/13 10:10:07;;;;;;;9.35;2.13;;;11.90;99.90;;;;;;5031743;28;20029;-73
2023/04/13 10:12:35;;;;;;;10.05;1.85;;;12.00;99.90;;;;;;5032160;28;20017;-73
2023/04/13 10:15:25;;;;;;;8.02;1.88;;;11.90;99.90;;;;;;5036643;28;20029;-74
2023/04/13 10:18:05;;;;;;;9.77;2.08;;;12.00;99.90;;;;;;5037263;28;20044;-73
2023/04/13 10:20:33;;;;;;;8.07;1.80;;;12.10;99.90;;;;;;5034981;28;20021;-73
2023/04/13 10:22:59;;;;;;;7.70;1.85;;;12.20;99.90;;;;;;5042082;28;20026;-73
2023/04/13 10:25:25;;;;;;;13.25;1.83;;;12.30;99.90;;;;;;5044690;28;20144;-72
2023/04/13 10:27:58;;;;;;;7.57;1.63;;;12.40;99.90;;;;;;5043746;28;20422;-73
2023/04/13 10:30:25;;;;;;;13.30;2.17;;;12.40;99.90;;;;;;5036269;28;20021;-72
2023/04/13 10:33:09;;;;;;;13.32;2.13;;;12.40;99.90;;;;;;5049921;28;20074;-73
2023/04/13 10:35:39;;;;;;;9.30;1.85;;;12.30;99.90;;;;;;5050896;28;20017;-73
2023/04/13 10:38:07;;;;;;;9.68;1.90;;;12.10;99.90;;;;;;5049876;28;20113;-73
2023/04/13 10:40:45;;;;;;;14.48;1.95;;;11.90;99.90;;;;;;5049612;28;20540;-73
2023/04/13 10:43:11;;;;;;;12.57;2.17;;;11.60;99.90;;;;;;5048915;28;20013;-72
2023/04/13 10:45:37;;;;;;;10.15;1.83;;;11.40;99.90;;;;;;5050756;28;20029;-73
2023/04/13 10:48:03;;;;;;;11.88;2.20;;;11.30;99.90;;;;;;5049699;28;20377;-73
2023/04/13 10:50:29;;;;;;;16.08;2.15;;;11.30;99.90;;;;;;5033974;28;20025;-73
2023/04/13 10:53:03;;;;;;;12.88;2.10;;;11.40;99.90;;;;;;5046140;28;20490;-72
2023/04/13 10:55:30;;;;;;;11.23;1.90;;;11.60;99.90;;;;;;5041891;28;20028;-72
2023/04/13 10:57:58;;;;;;;13.43;2.90;;;11.70;99.90;;;;;;5037095;28;20134;-72
2023/04/13 11:00:24;;;;;;;7.45;1.52;;;11.80;99.90;;;;;;5037363;28;20025;-73
2023/04/13 11:02:53;;;;;;;6.68;1.10;;;11.70;99.90;;;;;;5029498;28;20033;-73
2023/04/13 11:05:21;;;;;;;9.75;1.88;;;11.40;99.90;;;;;;5041879;28;20111;-73
2023/04/13 11:07:50;;;;;;;10.20;1.77;;;11.30;99.90;;;;;;5029966;28;20087;-73
2023/04/13 11:10:27;;;;;;;15.20;2.47;;;11.20;99.90;;;;;;5029278;28;20040;-73
2023/04/13 11:12:54;;;;;;;14.20;1.98;;;11.30;99.90;;;;;;5034559;28;20520;-72
2023/04/13 11:15:31;;;;;;;12.65;3.05;;;11.40;99.90;;;;;;5031698;28;20033;-71
2023/04/13 11:17:58;;;;;;;12.10;2.05;;;11.60;99.90;;;;;;5028386;28;20414;-71
2023/04/13 11:20:34;;;;;;;8.90;1.58;;;11.70;99.90;;;;;;5034380;28;20029;-71
2023/04/13 11:23:03;;;;;;;11.43;1.73;;;11.80;99.90;;;;;;5037867;28;20021;-71
2023/04/13 11:25:29;;;;;;;6.95;1.40;;;11.80;99.90;;;;;;5030052;28;20025;-72
2023/04/13 11:28:00;;;;;;;13.05;1.88;;;11.80;99.90;;;;;;5040821;28;20021;-71
2023/04/13 11:30:26;;;;;;;12.52;2.85;;;11.80;99.90;;;;;;5048763;28;20013;-72
2023/04/13 11:32:53;;;;;;;12.32;2.00;;;11.80;99.90;;;;;;5054936;28;20013;-71
2023/04/13 11:35:21;;;;;;;9.98;2.20;;;11.90;99.90;;;;;;5055853;28;20108;-71
2023/04/13 11:37:51;;;;;;;8.10;1.63;;;12.00;99.90;;;;;;5051668;28;20025;-72
2023/04/13 11:40:20;;;;;;;14.60;3.00;;;12.10;99.90;;;;;;5026986;28;20465;-71
2023/04/13 11:42:48;;;;;;;11.40;2.00;;;12.10;99.90;;;;;;5036529;28;20092;-72
2023/04/13 11:45:15;;;;;;;8.55;1.65;;;12.20;99.90;;;;;;5036695;28;20071;-71
2023/04/13 11:47:41;;;;;;;14.85;2.00;;;12.40;99.90;;;;;;5035381;28;20041;-72
2023/04/13 11:50:08;;;;;;;9.18;1.75;;;12.40;99.90;;;;;;5045304;28;20108;-72
2023/04/13 11:52:35;;;;;;;8.35;2.80;;;12.40;99.90;;;;;;5044037;28;20070;-73
2023/04/13 11:55:05;;;;;;;13.25;2.30;;;12.40;99.90;;;;;;5054074;28;20037;-72
2023/04/13 11:57:31;;;;;;;11.77;1.30;;;12.30;99.90;;;;;;5046551;28;20029;-72
2023/04/13 11:59:57;;;;;;;10.88;1.80;;;12.40;99.90;;;;;;5032234;28;20029;-72
2023/04/13 12:02:25;;;;;;;9.95;2.40;;;12.40;99.90;;;;;;5041182;28;20513;-72
2023/04/13 12:04:51;;;;;;;9.70;1.83;;;12.40;99.90;;;;;;5048711;28;20017;-72
2023/04/13 12:07:17;;;;;;;9.63;1.45;;;12.50;99.90;;;;;;5048717;28;20362;-71
2023/04/13 12:09:44;;;;;;;9.20;1.95;;;12.50;99.90;;;;;;5050471;28;20568;-71
2023/04/13 12:12:23;;;;;;;7.40;1.42;;;12.60;99.90;;;;;;5049761;28;20029;-71
2023/04/13 12:14:56;;;;;;;9.35;1.85;;;12.70;99.90;;;;;;5039882;28;20033;-71
2023/04/13 12:17:27;;;;;;;9.93;1.60;;;12.70;99.90;;;;;;5037726;28;20497;-71
2023/04/13 12:19:55;;;;;;;9.02;1.38;;;12.70;99.90;;;;;;5035283;28;20033;-71
2023/04/13 12:22:20;;;;;;;8.45;1.45;;;12.70;99.90;;;;;;5036618;28;20021;-71
2023/04/13 12:24:46;;;;;;;11.10;2.10;;;12.70;99.90;;;;;;5039401;28;20024;-71
2023/04/13 12:27:11;;;;;;;2.65;0.88;;;12.80;99.90;;;;;;5050386;28;20553;-71
2023/04/13 12:29:38;;;;;;;8.73;1.67;;;12.90;99.90;;;;;;5056321;28;20025;-71
2023/04/13 12:32:10;;;;;;;10.32;1.88;;;13.00;99.90;;;;;;5046913;28;20394;-71
2023/04/13 12:34:36;;;;;;;9.18;1.60;;;13.20;99.90;;;;;;5039873;28;20066;-71
2023/04/13 12:37:02;;;;;;;6.57;1.45;;;13.20;99.90;;;;;;5043488;28;20021;-71
2023/04/13 12:39:28;;;;;;;10.20;1.90;;;13.30;99.90;;;;;;5040992;28;20037;-72
2023/04/13 12:41:53;;;;;;;10.43;2.03;;;13.30;99.90;;;;;;5055261;28;20025;-72
2023/04/13 12:44:19;;;;;;;7.07;1.38;;;13.30;99.90;;;;;;5052895;28;20032;-71
2023/04/13 12:46:45;;;;;;;4.60;1.05;;;13.40;99.90;;;;;;5052914;28;20044;-71
2023/04/13 12:49:10;;;;;;;7.28;1.48;;;13.50;99.90;;;;;;5051671;28;20021;-72
2023/04/13 12:51:36;;;;;;;7.93;1.65;;;13.50;99.80;;;;;;5051331;28;20040;-71